createdAt,value
2022-09-05T00:02:06.515Z,101393.92
2022-09-05T00:05:10.511Z,101395.15
2022-09-05T00:08:18.092Z,101397.30
2022-09-05T00:11:40.834Z,101400.67
2022-09-05T00:14:34.325Z,101403.28
2022-09-05T00:22:09.511Z,101400.86
2022-09-05T00:24:28.426Z,101397.42
2022-09-05T00:25:06.871Z,101399.88
2022-09-05T00:28:14.532Z,101402.11
2022-09-05T00:31:55.941Z,101402.64
2022-09-05T00:34:58.027Z,101401.98
2022-09-05T00:37:46.938Z,101397.16
2022-09-05T00:40:37.019Z,101397.11
2022-09-05T00:43:25.748Z,101392.75
2022-09-05T00:46:17.313Z,101387.77
2022-09-05T00:49:24.118Z,101385.17
2022-09-05T00:52:41.424Z,101380.15
2022-09-05T00:55:48.845Z,101375.85
2022-09-05T00:58:42.705Z,101381.27
2022-09-05T01:01:42.160Z,101384.61
2022-09-05T01:04:40.873Z,101388.45
2022-09-05T01:07:57.184Z,101391.94
2022-09-05T01:10:51.472Z,101391.86
2022-09-05T01:13:54.758Z,101394.52
2022-09-05T01:17:08.780Z,101394.88
2022-09-05T01:20:19.210Z,101391.25
2022-09-05T01:23:42.023Z,101385.42
2022-09-05T01:27:04.941Z,101386.68
2022-09-05T01:29:59.287Z,101395.40
2022-09-05T01:33:16.502Z,101400.54
2022-09-05T01:36:05.487Z,101400.63
2022-09-05T01:39:51.586Z,101400.19
2022-09-05T01:42:36.978Z,101400.83
2022-09-05T01:45:39.454Z,101405.62
2022-09-05T01:48:35.571Z,101408.27
2022-09-05T01:51:55.271Z,101408.31
2022-09-05T01:54:57.307Z,101411.59
2022-09-05T01:58:07.560Z,101408.64
2022-09-05T02:01:25.220Z,101408.75
2022-09-05T02:04:31.356Z,101411.73
2022-09-05T02:07:31.308Z,101414.90
2022-09-05T02:10:38.071Z,101410.06
2022-09-05T02:13:35.576Z,101409.96
2022-09-05T02:16:44.276Z,101411.36
2022-09-05T02:19:31.519Z,101410.06
2022-09-05T02:22:28.763Z,101411.08
2022-09-05T02:26:01.490Z,101414.59
2022-09-05T02:28:33.185Z,101420.16
2022-09-05T02:31:42.165Z,101423.17
2022-09-05T02:34:34.554Z,101424.19
2022-09-05T02:41:55.590Z,101419.75
2022-09-05T02:45:03.908Z,101419.83
2022-09-05T02:45:21.698Z,101420.79
2022-09-05T02:47:23.399Z,101422.67
2022-09-05T02:53:59.162Z,101424.19
2022-09-05T02:57:39.947Z,101422.48
2022-09-05T02:57:40.980Z,101421.90
2022-09-05T03:00:16.316Z,101425.71
2022-09-05T03:03:12.213Z,101426.10
2022-09-05T03:06:18.359Z,101424.41
2022-09-05T03:09:25.962Z,101425.45
2022-09-05T03:12:42.758Z,101426.05
2022-09-05T03:15:37.186Z,101426.98
2022-09-05T03:18:42.543Z,101422.63
2022-09-05T03:21:57.366Z,101430.83
2022-09-05T03:25:24.732Z,101432.15
2022-09-05T03:28:21.932Z,101433.55
2022-09-05T03:31:29.753Z,101436.31
2022-09-05T03:34:47.757Z,101433.05
2022-09-05T03:38:05.287Z,101436.80
2022-09-05T03:41:09.421Z,101436.71
2022-09-05T03:44:30.431Z,101440.16
2022-09-05T03:47:31.047Z,101441.58
2022-09-05T03:53:29.386Z,101439.52
2022-09-05T03:57:15.964Z,101440.66
2022-09-05T03:57:27.200Z,101446.52
2022-09-05T04:00:12.194Z,101447.04
2022-09-05T04:08:09.967Z,101447.65
2022-09-05T04:08:27.485Z,101453.35
2022-09-05T04:10:21.164Z,101456.05
2022-09-05T04:13:28.851Z,101459.20
2022-09-05T04:16:17.993Z,101457.11
2022-09-05T04:19:24.669Z,101460.36
2022-09-05T04:22:17.626Z,101461.70
2022-09-05T04:25:18.945Z,101467.16
2022-09-05T04:28:21.965Z,101470.70
2022-09-05T04:31:10.758Z,101475.77
2022-09-05T04:34:20.234Z,101473.99
2022-09-05T04:37:09.454Z,101480.33
2022-09-05T04:39:54.518Z,101482.73
2022-09-05T04:42:40.650Z,101482.95
2022-09-05T04:45:27.431Z,101482.57
2022-09-05T04:48:15.830Z,101481.94
2022-09-05T04:51:36.638Z,101480.48
2022-09-05T04:54:40.522Z,101481.91
2022-09-05T04:57:48.163Z,101484.61
2022-09-05T05:06:00.448Z,101486.55
2022-09-05T05:06:18.131Z,101492.25
2022-09-05T05:07:08.015Z,101495.16
2022-09-05T05:10:55.399Z,101488.21
2022-09-05T05:18:03.083Z,101489.15
2022-09-05T05:18:16.388Z,101495.26
2022-09-05T05:20:41.239Z,101493.34
2022-09-05T05:24:00.736Z,101496.63
2022-09-05T05:26:57.080Z,101494.01
2022-09-05T05:30:02.436Z,101495.20
2022-09-05T05:32:49.299Z,101497.96
2022-09-05T05:35:37.091Z,101494.33
2022-09-05T05:38:47.309Z,101495.64
2022-09-05T05:41:48.839Z,101497.87
2022-09-05T05:44:36.700Z,101495.77
2022-09-05T05:47:31.891Z,101504.19
2022-09-05T05:50:49.930Z,101502.91
2022-09-05T05:54:12.687Z,101502.69
2022-09-05T05:57:22.992Z,101511.84
2022-09-05T06:00:28.044Z,101515.14
2022-09-05T06:03:35.499Z,101514.04
2022-09-05T06:06:49.886Z,101517.35
2022-09-05T06:14:51.404Z,101519.15
2022-09-05T06:14:58.263Z,101518.60
2022-09-05T06:17:28.329Z,101519.70
2022-09-05T06:22:07.595Z,101524.58
2022-09-05T06:24:02.091Z,101525.02
2022-09-05T06:26:59.905Z,101525.64
2022-09-05T06:30:07.834Z,101530.70
2022-09-05T06:33:15.275Z,101534.27
2022-09-05T06:36:31.009Z,101536.14
2022-09-05T06:39:45.210Z,101536.50
2022-09-05T06:42:44.598Z,101536.69
2022-09-05T06:45:37.547Z,101531.33
2022-09-05T06:49:32.051Z,101536.08
2022-09-05T06:52:48.527Z,101536.16
2022-09-05T06:55:53.438Z,101537.00
2022-09-05T06:58:53.993Z,101539.20
2022-09-05T07:02:01.060Z,101536.84
2022-09-05T07:05:37.139Z,101538.59
2022-09-05T07:08:35.285Z,101541.35
2022-09-05T07:11:33.123Z,101541.69
2022-09-05T07:14:28.019Z,101542.52
2022-09-05T07:17:17.365Z,101547.27
2022-09-05T07:20:13.444Z,101545.13
2022-09-05T07:23:23.105Z,101548.60
2022-09-05T07:26:51.879Z,101553.52
2022-09-05T07:29:39.489Z,101553.36
2022-09-05T07:32:42.830Z,101552.63
2022-09-05T07:35:31.234Z,101551.49
2022-09-05T07:38:45.589Z,101552.70
2022-09-05T07:41:39.748Z,101552.83
2022-09-05T07:44:40.442Z,101552.99
2022-09-05T07:47:32.373Z,101552.56
2022-09-05T07:52:10.718Z,101547.61
2022-09-05T07:57:09.516Z,101550.14
2022-09-05T07:57:22.452Z,101553.75
2022-09-05T08:00:26.000Z,101551.76
2022-09-05T08:03:15.211Z,101553.92
2022-09-05T08:06:05.371Z,101554.52
2022-09-05T08:09:21.295Z,101552.01
2022-09-05T08:12:28.243Z,101553.46
2022-09-05T08:15:27.176Z,101555.84
2022-09-05T08:18:36.720Z,101551.73
2022-09-05T08:21:42.389Z,101552.82
2022-09-05T08:24:37.989Z,101548.28
2022-09-05T08:27:26.061Z,101550.05
2022-09-05T08:30:26.051Z,101548.92
2022-09-05T08:33:21.821Z,101551.17
2022-09-05T08:36:30.400Z,101547.83
2022-09-05T08:39:26.108Z,101545.55
2022-09-05T08:42:26.169Z,101548.26
2022-09-05T08:46:47.177Z,101554.50
2022-09-05T08:49:11.433Z,101548.22
2022-09-05T08:52:25.140Z,101546.02
2022-09-05T08:55:19.874Z,101544.51
2022-09-05T08:58:33.989Z,101544.77
2022-09-05T09:01:59.321Z,101539.30
2022-09-05T09:05:01.130Z,101533.59
2022-09-05T09:08:26.863Z,101533.47
2022-09-05T09:11:41.608Z,101527.59
2022-09-05T09:14:35.607Z,101524.11
2022-09-05T09:17:30.879Z,101523.65
2022-09-05T09:20:28.632Z,101519.73
2022-09-05T09:23:31.932Z,101515.30
2022-09-05T09:26:32.456Z,101511.69
2022-09-05T09:29:18.288Z,101508.76
2022-09-05T09:32:17.741Z,101508.83
2022-09-05T09:35:24.310Z,101501.79
2022-09-05T09:38:33.811Z,101499.68
2022-09-05T09:41:31.185Z,101494.95
2022-09-05T09:44:35.229Z,101500.27
2022-09-05T09:47:33.608Z,101491.23
2022-09-05T09:50:22.586Z,101495.45
2022-09-05T09:53:17.787Z,101489.83
2022-09-05T09:56:32.534Z,101482.73
2022-09-05T09:59:36.234Z,101484.48
2022-09-05T10:07:30.447Z,101477.86
2022-09-05T10:10:43.645Z,101467.24
2022-09-05T10:10:44.353Z,101475.23
2022-09-05T10:13:17.177Z,101470.81
2022-09-05T10:16:29.738Z,101465.15
2022-09-05T10:22:41.907Z,101463.84
2022-09-05T10:25:49.237Z,101461.73
2022-09-05T10:28:37.238Z,101460.21
2022-09-05T10:35:05.252Z,101455.20
2022-09-05T10:35:24.269Z,101449.98
2022-09-05T10:38:30.240Z,101446.92
2022-09-05T10:41:22.107Z,101444.36
2022-09-05T10:44:10.900Z,101442.31
2022-09-05T10:47:34.893Z,101438.92
2022-09-05T10:50:28.315Z,101435.42
2022-09-05T10:53:51.136Z,101437.92
2022-09-05T10:56:47.744Z,101439.83
2022-09-05T11:02:20.361Z,101445.00
2022-09-05T11:02:58.244Z,101437.32
2022-09-05T11:05:54.585Z,101434.23
2022-09-05T11:08:45.701Z,101429.52
2022-09-05T11:11:40.087Z,101428.05
2022-09-05T11:14:35.385Z,101421.88
2022-09-05T11:17:40.149Z,101423.76
2022-09-05T11:20:54.380Z,101423.71
2022-09-05T11:23:43.341Z,101416.81
2022-09-05T11:26:35.700Z,101412.14
2022-09-05T11:29:43.379Z,101414.16
2022-09-05T11:39:50.797Z,101409.98
2022-09-05T11:40:06.361Z,101411.73
2022-09-05T11:43:34.204Z,101408.27
2022-09-05T11:46:43.844Z,101408.34
2022-09-05T11:49:30.730Z,101407.41
2022-09-05T11:52:41.179Z,101402.27
2022-09-05T11:55:43.091Z,101403.89
2022-09-05T11:58:57.676Z,101406.91
2022-09-05T12:02:17.075Z,101404.68
2022-09-05T12:05:48.276Z,101399.40
2022-09-05T12:08:35.543Z,101397.26
2022-09-05T12:11:20.730Z,101395.17
2022-09-05T12:14:28.349Z,101391.20
2022-09-05T12:17:35.540Z,101392.83
2022-09-05T12:20:49.428Z,101390.35
2022-09-05T12:27:40.300Z,101388.02
2022-09-05T12:30:33.617Z,101384.21
2022-09-05T12:36:04.239Z,101379.56
2022-09-05T12:41:35.732Z,101375.33
2022-09-05T12:41:41.476Z,101388.42
2022-09-05T12:41:42.340Z,101375.77
2022-09-05T12:44:39.059Z,101369.75
2022-09-05T12:46:23.693Z,101373.23
2022-09-05T12:49:17.365Z,101371.14
2022-09-05T12:52:05.980Z,101364.78
2022-09-05T12:54:57.247Z,101365.50
2022-09-05T13:00:52.517Z,101363.41
2022-09-05T13:03:11.190Z,101361.80
2022-09-05T13:04:19.607Z,101357.27
2022-09-05T13:07:21.107Z,101351.39
2022-09-05T13:11:39.214Z,101349.82
2022-09-05T13:14:56.827Z,101352.67
2022-09-05T13:16:31.315Z,101348.16
2022-09-05T13:19:30.605Z,101348.25
2022-09-05T13:22:19.552Z,101343.52
2022-09-05T13:25:16.593Z,101343.30
2022-09-05T13:28:08.534Z,101339.94
2022-09-05T13:37:55.197Z,101339.98
2022-09-05T13:38:00.574Z,101345.39
2022-09-05T13:38:19.483Z,101336.14
2022-09-05T13:40:45.502Z,101337.39
2022-09-05T13:43:38.184Z,101335.62
2022-09-05T13:46:36.731Z,101335.58
2022-09-05T13:49:37.074Z,101337.02
2022-09-05T13:52:29.627Z,101330.25
2022-09-05T13:55:44.985Z,101331.70
2022-09-05T13:58:40.025Z,101331.00
2022-09-05T14:02:25.012Z,101325.98
2022-09-05T14:05:44.456Z,101325.04
2022-09-05T14:08:36.823Z,101324.38
2022-09-05T14:11:45.026Z,101324.92
2022-09-05T14:15:08.963Z,101325.02
2022-09-05T14:17:58.087Z,101326.95
2022-09-05T14:21:10.760Z,101319.31
2022-09-05T14:23:58.813Z,101314.73
2022-09-05T14:27:06.917Z,101320.39
2022-09-05T14:29:48.292Z,101318.05
2022-09-05T14:37:41.814Z,101317.25
2022-09-05T14:37:53.122Z,101316.52
2022-09-05T14:39:08.417Z,101310.42
2022-09-05T14:41:39.997Z,101310.79
2022-09-05T14:44:21.754Z,101308.77
2022-09-05T14:46:56.918Z,101308.73
2022-09-05T14:49:52.417Z,101305.21
2022-09-05T14:52:24.851Z,101306.80
2022-09-05T15:02:38.684Z,101302.54
2022-09-05T15:02:42.071Z,101301.27
2022-09-05T15:06:59.605Z,101301.61
2022-09-05T15:11:25.583Z,101299.56
2022-09-05T15:12:33.069Z,101296.96
2022-09-05T15:15:06.733Z,101297.59
2022-09-05T15:17:34.972Z,101295.27
2022-09-05T15:20:08.333Z,101292.76
2022-09-05T15:22:39.656Z,101292.77
2022-09-05T15:25:16.766Z,101285.60
2022-09-05T15:27:46.761Z,101290.01
2022-09-05T15:30:34.990Z,101286.84
2022-09-05T15:33:25.476Z,101289.19
2022-09-05T15:35:55.413Z,101289.26
2022-09-05T15:38:55.006Z,101285.05
2022-09-05T15:41:23.926Z,101286.60
2022-09-05T15:44:01.334Z,101285.27
2022-09-05T15:46:41.167Z,101283.44
2022-09-05T15:49:14.418Z,101285.89
2022-09-05T15:51:53.234Z,101287.31
2022-09-05T15:54:38.293Z,101286.70
2022-09-05T15:57:17.792Z,101284.54
2022-09-05T15:59:49.215Z,101287.39
2022-09-05T16:02:23.510Z,101285.10
2022-09-05T16:10:28.966Z,101280.57
2022-09-05T16:10:37.976Z,101278.23
2022-09-05T16:14:30.160Z,101269.61
2022-09-05T16:23:11.794Z,101263.79
2022-09-05T16:23:13.956Z,101267.40
2022-09-05T16:23:24.296Z,101268.27
2022-09-05T16:26:24.805Z,101264.41
2022-09-05T16:29:10.391Z,101264.33
2022-09-05T16:31:47.092Z,101267.34
2022-09-05T16:34:43.284Z,101262.70
2022-09-05T16:37:14.260Z,101261.00
2022-09-05T16:39:50.281Z,101261.25
2022-09-05T16:42:46.017Z,101263.56
2022-09-05T16:45:28.909Z,101263.52
2022-09-05T16:48:26.175Z,101263.66
2022-09-05T16:51:13.287Z,101264.66
2022-09-05T16:53:58.267Z,101259.95
2022-09-05T16:56:45.744Z,101259.34
2022-09-05T16:59:34.331Z,101264.13
2022-09-05T17:02:20.011Z,101263.46
2022-09-05T17:05:10.721Z,101260.84
2022-09-05T17:07:56.603Z,101259.48
2022-09-05T17:10:27.382Z,101259.87
2022-09-05T17:12:55.766Z,101262.83
2022-09-05T17:15:29.158Z,101260.45
2022-09-05T17:18:21.768Z,101259.81
2022-09-05T17:20:55.009Z,101262.23
2022-09-05T17:29:18.295Z,101263.46
2022-09-05T17:29:34.291Z,101263.27
2022-09-05T17:32:47.221Z,101267.84
2022-09-05T17:35:21.864Z,101271.43
2022-09-05T17:37:50.336Z,101272.37
2022-09-05T17:40:54.879Z,101274.84
2022-09-05T17:43:28.877Z,101276.67
2022-09-05T17:46:36.690Z,101281.03
2022-09-05T17:49:18.550Z,101286.66
2022-09-05T17:51:51.864Z,101287.42
2022-09-05T17:54:27.799Z,101284.02
2022-09-05T17:56:55.528Z,101286.41
2022-09-05T17:59:27.174Z,101292.80
2022-09-05T18:02:07.221Z,101292.85
2022-09-05T18:04:45.049Z,101295.95
2022-09-05T18:07:31.090Z,101295.13
2022-09-05T18:10:14.736Z,101298.13
2022-09-05T18:13:12.451Z,101301.61
2022-09-05T18:15:40.054Z,101301.02
2022-09-05T18:21:21.090Z,101306.91
2022-09-05T18:23:54.806Z,101304.05
2022-09-05T18:26:26.313Z,101303.86
2022-09-05T18:29:00.335Z,101308.63
2022-09-05T18:31:41.030Z,101310.51
2022-09-05T18:34:13.271Z,101309.64
2022-09-05T18:36:41.842Z,101308.05
2022-09-05T18:39:24.880Z,101311.30
2022-09-05T18:42:33.650Z,101310.89
2022-09-05T18:45:32.878Z,101309.92
2022-09-05T18:48:01.734Z,101313.65
2022-09-05T18:50:33.973Z,101312.32
2022-09-05T18:53:09.033Z,101306.69
2022-09-05T18:56:11.126Z,101310.27
2022-09-05T18:58:53.248Z,101309.77
2022-09-05T19:01:33.955Z,101310.94
2022-09-05T19:04:05.366Z,101309.13
2022-09-05T19:06:37.915Z,101307.05
2022-09-05T19:09:14.173Z,101306.59
2022-09-05T19:11:53.378Z,101307.89
2022-09-05T19:14:30.382Z,101305.84
2022-09-05T19:17:10.052Z,101299.50
2022-09-05T19:20:10.917Z,101297.55
2022-09-05T19:23:11.530Z,101296.52
2022-09-05T19:25:47.265Z,101297.77
2022-09-05T19:33:28.433Z,101296.84
2022-09-05T19:36:54.644Z,101294.61
2022-09-05T19:37:03.963Z,101298.98
2022-09-05T19:37:29.437Z,101300.61
2022-09-05T19:42:42.046Z,101293.95
2022-09-05T19:47:37.380Z,101297.13
2022-09-05T19:47:40.836Z,101293.99
2022-09-05T19:48:30.713Z,101298.23
2022-09-05T19:51:17.470Z,101299.61
2022-09-05T19:53:53.938Z,101298.94
2022-09-05T19:56:37.781Z,101295.58
2022-09-05T19:59:23.026Z,101294.75
2022-09-05T20:01:53.098Z,101294.20
2022-09-05T20:04:21.575Z,101294.25
2022-09-05T20:06:50.242Z,101296.14
2022-09-05T20:09:20.562Z,101296.86
2022-09-05T20:11:54.718Z,101300.12
2022-09-05T20:14:30.704Z,101300.70
2022-09-05T20:17:23.339Z,101299.19
2022-09-05T20:20:12.310Z,101305.52
2022-09-05T20:22:49.468Z,101302.92
2022-09-05T20:25:36.122Z,101305.21
2022-09-05T20:28:10.350Z,101305.65
2022-09-05T20:30:45.312Z,101309.04
2022-09-05T20:34:00.818Z,101304.61
2022-09-05T20:43:09.667Z,101301.34
2022-09-05T20:43:22.127Z,101303.53
2022-09-05T20:43:22.129Z,101300.54
2022-09-05T20:45:58.783Z,101303.39
2022-09-05T20:54:04.876Z,101306.17
2022-09-05T20:54:22.576Z,101307.04
2022-09-05T20:54:31.937Z,101303.65
2022-09-05T20:57:18.621Z,101301.30
2022-09-05T20:59:50.137Z,101306.38
2022-09-05T21:02:20.803Z,101307.53
2022-09-05T21:05:21.168Z,101307.10
2022-09-05T21:08:02.448Z,101306.19
2022-09-05T21:10:56.063Z,101307.84
2022-09-05T21:13:27.426Z,101310.17
2022-09-05T21:15:56.065Z,101314.70
2022-09-05T21:18:33.330Z,101316.43
2022-09-05T21:21:25.727Z,101319.06
2022-09-05T21:24:16.858Z,101317.92
2022-09-05T21:26:48.478Z,101316.36
2022-09-05T21:29:17.623Z,101318.52
2022-09-05T21:31:54.416Z,101321.42
2022-09-05T21:34:22.844Z,101317.20
2022-09-05T21:36:59.221Z,101321.09
2022-09-05T21:39:54.000Z,101319.77
2022-09-05T21:44:46.786Z,101320.63
2022-09-05T21:47:43.654Z,101324.68
2022-09-05T21:48:11.772Z,101325.26
2022-09-05T21:50:45.126Z,101325.83
2022-09-05T21:57:00.405Z,101328.20
2022-09-05T21:59:16.303Z,101323.46
2022-09-05T21:59:25.570Z,101325.96
2022-09-05T22:01:56.714Z,101327.05
2022-09-05T22:04:24.789Z,101326.90
2022-09-05T22:06:54.259Z,101326.57
2022-09-05T22:09:22.558Z,101324.67
2022-09-05T22:11:51.483Z,101323.31
2022-09-05T22:14:20.868Z,101319.65
2022-09-05T22:16:51.542Z,101318.33
2022-09-05T22:19:36.979Z,101315.42
2022-09-05T22:22:16.062Z,101316.89
2022-09-05T22:24:55.494Z,101318.84
2022-09-05T22:27:25.521Z,101319.91
2022-09-05T22:29:53.462Z,101325.38
2022-09-05T22:32:33.750Z,101320.95
2022-09-05T22:35:26.880Z,101318.09
2022-09-05T22:38:00.271Z,101317.75
2022-09-05T22:40:30.238Z,101321.48
2022-09-05T22:43:00.394Z,101322.27
2022-09-05T22:45:29.748Z,101324.81
2022-09-05T22:47:58.591Z,101327.02
2022-09-05T22:50:26.469Z,101325.33
2022-09-05T22:52:54.184Z,101329.09
2022-09-05T22:55:22.191Z,101329.52
2022-09-05T22:57:50.028Z,101330.17
2022-09-05T23:00:17.819Z,101327.21
2022-09-05T23:02:48.986Z,101329.20
2022-09-05T23:05:19.412Z,101330.04
2022-09-05T23:07:47.262Z,101325.59
2022-09-05T23:10:15.011Z,101328.55
2022-09-05T23:12:42.668Z,101328.48
2022-09-05T23:15:10.640Z,101327.59
2022-09-05T23:17:38.596Z,101323.46
2022-09-05T23:20:06.869Z,101324.83
2022-09-05T23:22:40.197Z,101323.35
2022-09-05T23:25:08.255Z,101321.38
2022-09-05T23:27:36.855Z,101324.75
2022-09-05T23:30:07.318Z,101322.11
2022-09-05T23:32:35.040Z,101319.89
2022-09-05T23:35:03.247Z,101316.81
2022-09-05T23:37:31.035Z,101317.06
2022-09-05T23:39:58.766Z,101318.14
2022-09-05T23:42:27.145Z,101318.38
2022-09-05T23:44:54.841Z,101320.23
2022-09-05T23:47:22.778Z,101318.20
2022-09-05T23:49:50.386Z,101318.80
2022-09-05T23:52:18.100Z,101319.38
2022-09-05T23:54:45.823Z,101321.63
2022-09-05T23:57:13.611Z,101318.93
2022-09-05T23:59:41.330Z,101315.89
